Time;durP1;ratioP1;P1;durP2;ratioP2;P2;SDS_P1;SDS_P2;PMS_P1;PMS_P2;Temp;Humidity;BMP_temperature;BMP_pressure;BME280_temperature;BME280_humidity;BME280_pressure;Samples;Min_cycle;Max_cycle;Signal;HPM_P1;HPM_P2
2021/07/08 00:00:54;;;;;;;;;;;;;;;17.25;68.68;101441.92;1624366;88;20585;-77
2021/07/08 00:03:20;;;;;;;;;;;;;;;17.24;68.72;101441.52;1627824;86;20140;-77
2021/07/08 00:05:46;;;;;;;;;;;;;;;17.24;68.70;101442.83;1631527;87;20735;-77
2021/07/08 00:08:13;;;;;;;;;;;;;;;17.21;68.69;101437.23;1620362;87;20498;-77
2021/07/08 00:10:41;;;;;;;;;;;;;;;17.19;68.70;101438.59;1617744;87;20146;-77
2021/07/08 00:13:08;;;;;;;;;;;;;;;17.18;68.76;101436.02;1617505;88;20162;-77
2021/07/08 00:15:34;;;;;;;;;;;;;;;17.16;68.68;101428.23;1617505;88;20151;-77
2021/07/08 00:18:01;;;;;;;;;;;;;;;17.11;68.76;101423.63;1617269;87;20141;-77
2021/07/08 00:20:29;;;;;;;;;;;;;;;17.11;68.81;101426.69;1617510;88;20130;-77
2021/07/08 00:22:55;;;;;;;;;;;;;;;17.07;68.75;101427.68;1617808;87;20129;-77
2021/07/08 00:25:23;;;;;;;;;;;;;;;17.01;68.70;101430.48;1617746;87;20196;-77
2021/07/08 00:27:49;;;;;;;;;;;;;;;16.96;68.73;101441.51;1617920;87;20600;-77
2021/07/08 00:30:16;;;;;;;;;;;;;;;16.92;68.76;101433.35;1617468;87;20199;-77
2021/07/08 00:32:42;;;;;;;;;;;;;;;16.91;68.80;101440.34;1623259;87;20389;-77
2021/07/08 00:35:09;;;;;;;;;;;;;;;16.88;68.81;101437.81;1616991;87;20153;-77
2021/07/08 00:37:35;;;;;;;;;;;;;;;16.84;68.83;101438.34;1613339;88;20141;-77
2021/07/08 00:40:01;;;;;;;;;;;;;;;16.81;68.88;101443.66;1617890;87;20166;-77
2021/07/08 00:42:35;;;;;;;;;;;;;;;16.78;68.85;101435.91;1617430;87;20158;-77
2021/07/08 00:45:01;;;;;;;;;;;;;;;16.73;68.87;101439.55;1617954;88;20184;-77
2021/07/08 00:47:27;;;;;;;;;;;;;;;16.70;68.89;101440.94;1617535;87;20130;-77
2021/07/08 00:49:53;;;;;;;;;;;;;;;16.66;68.88;101438.01;1612352;88;20579;-77
2021/07/08 00:52:18;;;;;;;;;;;;;;;16.63;68.87;101432.42;1617734;88;20796;-77
2021/07/08 00:54:45;;;;;;;;;;;;;;;16.59;68.92;101438.62;1617601;88;20154;-77
2021/07/08 00:57:11;;;;;;;;;;;;;;;16.58;68.94;101444.75;1611449;87;20480;-77
2021/07/08 00:59:44;;;;;;;;;;;;;;;16.57;68.97;101444.79;1617894;87;20129;-77
2021/07/08 01:02:13;;;;;;;;;;;;;;;16.52;68.98;101441.86;1612586;87;20157;-77
2021/07/08 01:04:44;;;;;;;;;;;;;;;16.51;69.01;101444.06;1617585;87;20142;-77
2021/07/08 01:07:12;;;;;;;;;;;;;;;16.49;68.92;101443.24;1622086;87;20098;-77
2021/07/08 01:09:38;;;;;;;;;;;;;;;16.46;69.01;101445.08;1622058;88;20141;-77
2021/07/08 01:12:06;;;;;;;;;;;;;;;16.43;69.00;101443.86;1622386;87;20149;-77
2021/07/08 01:14:32;;;;;;;;;;;;;;;16.41;68.94;101446.95;1621963;88;20184;-77
2021/07/08 01:16:58;;;;;;;;;;;;;;;16.35;68.92;101441.90;1622380;88;20184;-76
2021/07/08 01:19:24;;;;;;;;;;;;;;;16.29;68.86;101435.53;1621757;88;20129;-76
2021/07/08 01:21:50;;;;;;;;;;;;;;;16.24;68.93;101439.57;1622313;87;20121;-76
2021/07/08 01:24:16;;;;;;;;;;;;;;;16.19;68.97;101446.21;1622056;88;20168;-76
2021/07/08 01:26:42;;;;;;;;;;;;;;;16.12;68.95;101443.35;1622204;87;20220;-76
2021/07/08 01:29:08;;;;;;;;;;;;;;;16.09;69.03;101439.99;1622172;87;20232;-76
2021/07/08 01:31:34;;;;;;;;;;;;;;;16.06;69.02;101442.23;1622080;88;20532;-76
2021/07/08 01:34:00;;;;;;;;;;;;;;;16.02;69.18;101448.88;1631340;87;20172;-76
2021/07/08 01:36:26;;;;;;;;;;;;;;;16.01;69.21;101456.29;1621713;88;20260;-76
2021/07/08 01:38:52;;;;;;;;;;;;;;;16.01;69.20;101458.90;1622344;88;20208;-76
2021/07/08 01:41:18;;;;;;;;;;;;;;;15.99;69.17;101460.23;1622335;87;20121;-76
2021/07/08 01:43:45;;;;;;;;;;;;;;;15.97;69.23;101454.20;1621631;87;20142;-76
2021/07/08 01:46:13;;;;;;;;;;;;;;;15.96;69.28;101454.24;1622081;88;20129;-76
2021/07/08 01:48:39;;;;;;;;;;;;;;;15.96;69.28;101446.41;1621903;87;20129;-76
2021/07/08 01:51:18;;;;;;;;;;;;;;;15.95;69.27;101448.61;1622112;88;20162;-76
2021/07/08 01:53:44;;;;;;;;;;;;;;;15.89;69.10;101450.92;1622347;88;20146;-76
2021/07/08 01:56:10;;;;;;;;;;;;;;;15.82;69.10;101450.22;1622118;87;20141;-76
2021/07/08 01:58:37;;;;;;;;;;;;;;;15.76;69.23;101455.58;1621981;87;20461;-77
2021/07/08 02:01:03;;;;;;;;;;;;;;;15.67;69.12;101449.28;1621757;87;20177;-77
2021/07/08 02:03:29;;;;;;;;;;;;;;;15.63;69.42;101447.63;1625919;87;20141;-77
2021/07/08 02:05:55;;;;;;;;;;;;;;;15.61;69.33;101445.51;1622085;88;20154;-77
2021/07/08 02:08:21;;;;;;;;;;;;;;;15.61;69.58;101448.12;1626131;87;20664;-77
2021/07/08 02:10:47;;;;;;;;;;;;;;;15.61;69.57;101446.81;1629470;86;20180;-77
2021/07/08 02:13:13;;;;;;;;;;;;;;;15.63;69.59;101435.91;1610072;88;20196;-77
2021/07/08 02:15:39;;;;;;;;;;;;;;;15.64;69.60;101430.24;1629591;88;20196;-77
2021/07/08 02:18:06;;;;;;;;;;;;;;;15.64;69.71;101427.63;1629453;88;20637;-77
2021/07/08 02:20:32;;;;;;;;;;;;;;;15.63;69.70;101428.08;1621409;86;20588;-77
2021/07/08 02:22:58;;;;;;;;;;;;;;;15.66;69.86;101434.53;1629433;88;20317;-77
2021/07/08 02:25:25;;;;;;;;;;;;;;;15.69;69.86;101440.11;1623634;84;510558;-77
2021/07/08 02:27:51;;;;;;;;;;;;;;;15.73;69.87;101438.70;1603108;87;20453;-77
2021/07/08 02:30:19;;;;;;;;;;;;;;;15.73;69.98;101423.50;1631403;86;20116;-77
2021/07/08 02:32:48;;;;;;;;;;;;;;;15.77;70.13;101418.62;1630744;86;20128;-77
2021/07/08 02:35:15;;;;;;;;;;;;;;;15.80;70.25;101421.16;1635671;86;20169;-77
2021/07/08 02:37:42;;;;;;;;;;;;;;;15.87;70.39;101431.84;1631127;86;20108;-77
2021/07/08 02:40:14;;;;;;;;;;;;;;;15.93;70.39;101443.87;1631146;86;20104;-77
2021/07/08 02:42:41;;;;;;;;;;;;;;;15.94;70.36;101447.76;1629812;86;20108;-78
2021/07/08 02:45:08;;;;;;;;;;;;;;;15.99;70.51;101454.16;1634355;86;20104;-78
2021/07/08 02:47:34;;;;;;;;;;;;;;;16.07;70.58;101461.35;1631039;86;20444;-77
2021/07/08 02:50:01;;;;;;;;;;;;;;;16.10;70.50;101455.61;1630769;86;20112;-77
2021/07/08 02:52:27;;;;;;;;;;;;;;;16.17;70.57;101457.59;1631310;87;20526;-77
2021/07/08 02:54:53;;;;;;;;;;;;;;;16.21;70.60;101459.22;1631110;87;20201;-77
2021/07/08 02:57:19;;;;;;;;;;;;;;;16.24;70.52;101455.23;1631338;86;20132;-77
2021/07/08 02:59:45;;;;;;;;;;;;;;;16.26;70.51;101459.10;1630855;88;20362;-77
2021/07/08 03:02:11;;;;;;;;;;;;;;;16.29;70.60;101464.24;1630821;87;21172;-77
2021/07/08 03:04:37;;;;;;;;;;;;;;;16.34;70.61;101464.98;1630726;86;20104;-77
2021/07/08 03:07:04;;;;;;;;;;;;;;;16.39;70.53;101461.80;1631184;86;20108;-78
2021/07/08 03:09:30;;;;;;;;;;;;;;;16.34;70.45;101459.31;1624502;87;20116;-77
2021/07/08 03:11:56;;;;;;;;;;;;;;;16.35;70.70;101461.03;1624203;88;20198;-77
2021/07/08 03:14:22;;;;;;;;;;;;;;;16.39;70.71;101463.11;1603062;87;20124;-77
2021/07/08 03:16:48;;;;;;;;;;;;;;;16.41;70.67;101463.48;1623937;87;20125;-77
2021/07/08 03:19:14;;;;;;;;;;;;;;;16.42;70.74;101462.58;1624206;87;20132;-77
2021/07/08 03:21:40;;;;;;;;;;;;;;;16.46;70.75;101465.52;1624324;87;20455;-77
2021/07/08 03:24:07;;;;;;;;;;;;;;;16.49;70.77;101469.35;1624290;87;20555;-77
2021/07/08 03:26:33;;;;;;;;;;;;;;;16.52;70.77;101466.66;1623929;87;20231;-77
2021/07/08 03:29:00;;;;;;;;;;;;;;;16.55;70.72;101477.02;1624240;87;20129;-77
2021/07/08 03:31:27;;;;;;;;;;;;;;;16.55;70.72;101477.47;1624057;87;20555;-77
2021/07/08 03:33:53;;;;;;;;;;;;;;;16.58;70.76;101483.06;1623743;87;20112;-77
2021/07/08 03:36:19;;;;;;;;;;;;;;;16.54;70.60;101484.45;1629208;87;20105;-77
2021/07/08 03:38:45;;;;;;;;;;;;;;;16.55;70.86;101482.69;1623891;87;20113;-78
2021/07/08 03:41:11;;;;;;;;;;;;;;;16.59;70.86;101487.38;1623986;87;20195;-78
2021/07/08 03:43:38;;;;;;;;;;;;;;;16.65;70.92;101484.61;1624493;87;20671;-77
2021/07/08 03:46:03;;;;;;;;;;;;;;;16.66;70.89;101482.41;1592412;88;20122;-77
2021/07/08 03:48:30;;;;;;;;;;;;;;;16.70;70.88;101478.81;1624276;87;20132;-77
2021/07/08 03:50:56;;;;;;;;;;;;;;;16.72;70.89;101487.02;1635953;87;20104;-77
2021/07/08 03:53:22;;;;;;;;;;;;;;;16.75;70.89;101485.63;1628654;87;20227;-77
2021/07/08 03:55:48;;;;;;;;;;;;;;;16.77;70.94;101496.89;1634031;87;20161;-77
2021/07/08 03:58:14;;;;;;;;;;;;;;;16.80;70.94;101499.86;1626031;87;20456;-77
2021/07/08 04:00:42;;;;;;;;;;;;;;;16.78;70.84;101499.05;1608169;87;20213;-77
2021/07/08 04:03:10;;;;;;;;;;;;;;;16.80;70.95;101501.17;1628571;87;20117;-78
2021/07/08 04:05:36;;;;;;;;;;;;;;;16.83;71.02;101495.41;1631038;87;20112;-77
2021/07/08 04:08:03;;;;;;;;;;;;;;;16.86;70.94;101501.86;1628651;87;20172;-77
2021/07/08 04:10:29;;;;;;;;;;;;;;;16.87;71.00;101499.66;1615516;87;20420;-77
2021/07/08 04:12:56;;;;;;;;;;;;;;;16.89;70.99;101502.22;1610120;87;20092;-77
2021/07/08 04:15:22;;;;;;;;;;;;;;;16.94;71.09;101500.34;1593167;88;20136;-77
2021/07/08 04:17:48;;;;;;;;;;;;;;;16.98;71.07;101491.52;1617752;87;20112;-77
2021/07/08 04:20:17;;;;;;;;;;;;;;;17.03;71.05;101493.55;1610544;87;20567;-77
2021/07/08 04:22:43;;;;;;;;;;;;;;;17.05;71.04;101499.59;1611284;87;20452;-77
2021/07/08 04:25:11;;;;;;;;;;;;;;;17.06;71.02;101492.61;1620380;87;20470;-77
2021/07/08 04:27:37;;;;;;;;;;;;;;;17.06;71.03;101497.38;1588305;89;20577;-78
2021/07/08 04:30:06;;;;;;;;;;;;;;;17.06;71.04;101499.99;1589261;89;20463;-78
2021/07/08 04:32:32;;;;;;;;;;;;;;;17.09;71.09;101499.91;1588429;89;20148;-77
2021/07/08 04:34:58;;;;;;;;;;;;;;;17.13;71.12;101497.61;1587318;89;20770;-77
2021/07/08 04:37:25;;;;;;;;;;;;;;;17.15;71.11;101499.73;1587637;89;20418;-77
2021/07/08 04:39:52;;;;;;;;;;;;;;;17.17;71.10;101495.73;1584577;89;20451;-77
2021/07/08 04:42:18;;;;;;;;;;;;;;;17.21;71.19;101499.97;1583386;89;20421;-77
2021/07/08 04:44:45;;;;;;;;;;;;;;;17.28;71.24;101508.48;1589108;89;20459;-77
2021/07/08 04:47:12;;;;;;;;;;;;;;;17.32;71.18;101505.73;1583090;89;20439;-77
2021/07/08 04:49:39;;;;;;;;;;;;;;;17.39;71.23;101512.95;1587839;89;20427;-77
2021/07/08 04:52:05;;;;;;;;;;;;;;;17.44;71.22;101505.83;1592037;89;20101;-77
2021/07/08 04:54:31;;;;;;;;;;;;;;;17.50;71.31;101506.50;1587883;89;20456;-77
2021/07/08 04:56:57;;;;;;;;;;;;;;;17.58;71.26;101502.34;1588267;89;20166;-77
2021/07/08 04:59:24;;;;;;;;;;;;;;;17.67;71.32;101509.94;1588250;89;20508;-77
2021/07/08 05:01:50;;;;;;;;;;;;;;;17.75;71.26;101507.05;1582496;89;20415;-77
2021/07/08 05:04:16;;;;;;;;;;;;;;;17.78;71.12;101507.81;1585271;89;20760;-77
2021/07/08 05:06:42;;;;;;;;;;;;;;;17.82;71.16;101510.73;1586470;89;20410;-77
2021/07/08 05:09:08;;;;;;;;;;;;;;;17.88;71.30;101505.77;1581503;89;20289;-77
2021/07/08 05:11:38;;;;;;;;;;;;;;;18.00;71.29;101503.20;1582306;89;20161;-77
2021/07/08 05:14:04;;;;;;;;;;;;;;;18.09;71.36;101502.45;1586392;89;20189;-77
2021/07/08 05:16:30;;;;;;;;;;;;;;;18.19;71.32;101492.53;1573262;90;20577;-77
2021/07/08 05:18:56;;;;;;;;;;;;;;;18.30;71.32;101490.38;1587658;89;20731;-77
2021/07/08 05:21:23;;;;;;;;;;;;;;;18.43;71.36;101486.44;1589809;89;20488;-77
2021/07/08 05:23:51;;;;;;;;;;;;;;;18.59;71.35;101485.91;1587714;89;20468;-77
2021/07/08 05:26:16;;;;;;;;;;;;;;;18.74;71.24;101486.67;1587369;89;20171;-77
2021/07/08 05:28:44;;;;;;;;;;;;;;;18.87;71.26;101490.56;1584390;89;20108;-77
2021/07/08 05:31:10;;;;;;;;;;;;;;;18.99;71.08;101487.95;1586821;89;20464;-77
2021/07/08 05:33:36;;;;;;;;;;;;;;;19.06;71.01;101484.19;1588528;89;20497;-77
2021/07/08 05:36:02;;;;;;;;;;;;;;;19.10;71.00;101490.58;1586331;89;20209;-77
2021/07/08 05:38:28;;;;;;;;;;;;;;;19.15;71.06;101501.75;1612382;88;20812;-77
2021/07/08 05:40:54;;;;;;;;;;;;;;;19.20;71.01;101510.75;1612411;88;20179;-77
2021/07/08 05:43:20;;;;;;;;;;;;;;;19.22;71.01;101505.45;1612742;88;20428;-77
2021/07/08 05:45:46;;;;;;;;;;;;;;;19.25;70.96;101503.99;1615827;88;20231;-77
2021/07/08 05:48:12;;;;;;;;;;;;;;;19.24;70.94;101500.97;1613811;88;20255;-77
2021/07/08 05:50:38;;;;;;;;;;;;;;;19.30;71.07;101503.36;1614841;88;20461;-77
2021/07/08 05:53:04;;;;;;;;;;;;;;;19.37;71.01;101500.91;1611935;88;20243;-77
2021/07/08 05:55:30;;;;;;;;;;;;;;;19.43;71.06;101504.61;1613090;89;20108;-77
2021/07/08 05:57:56;;;;;;;;;;;;;;;19.49;70.90;101518.80;1613477;89;20441;-78
2021/07/08 06:00:22;;;;;;;;;;;;;;;19.49;70.83;101520.11;1612684;89;20408;-78
2021/07/08 06:02:49;;;;;;;;;;;;;;;19.52;70.96;101525.73;1610782;87;20488;-78
2021/07/08 06:05:15;;;;;;;;;;;;;;;19.55;70.90;101533.02;1611994;89;20906;-78
2021/07/08 06:07:41;;;;;;;;;;;;;;;19.56;70.80;101529.48;1613845;89;20688;-78
2021/07/08 06:10:11;;;;;;;;;;;;;;;19.54;70.84;101533.09;1613815;88;20789;-78
2021/07/08 06:12:37;;;;;;;;;;;;;;;19.55;71.00;101543.98;1611303;89;20120;-78
2021/07/08 06:15:04;;;;;;;;;;;;;;;19.58;70.85;101548.65;1591342;89;20417;-78
2021/07/08 06:17:30;;;;;;;;;;;;;;;19.56;71.01;101553.10;1611311;89;20121;-78
2021/07/08 06:19:57;;;;;;;;;;;;;;;19.59;70.94;101551.67;1613277;88;20110;-77
2021/07/08 06:22:23;;;;;;;;;;;;;;;19.61;70.99;101550.30;1614011;88;20157;-77
2021/07/08 06:24:49;;;;;;;;;;;;;;;19.64;70.94;101538.37;1614883;88;20572;-76
2021/07/08 06:27:15;;;;;;;;;;;;;;;19.63;70.88;101532.27;1616339;88;20188;-76
2021/07/08 06:29:41;;;;;;;;;;;;;;;19.63;70.86;101533.59;1614537;88;20130;-77
2021/07/08 06:32:07;;;;;;;;;;;;;;;19.63;70.82;101540.60;1612156;89;20177;-77
2021/07/08 06:34:35;;;;;;;;;;;;;;;19.61;70.83;101544.59;1612762;88;20122;-77
2021/07/08 06:37:01;;;;;;;;;;;;;;;19.61;70.75;101546.36;1614592;88;20432;-77
2021/07/08 06:39:26;;;;;;;;;;;;;;;19.60;70.91;101552.07;1610410;88;20130;-77
2021/07/08 06:41:53;;;;;;;;;;;;;;;19.63;70.93;101551.09;1613217;89;20240;-77
2021/07/08 06:44:18;;;;;;;;;;;;;;;19.64;70.89;101546.25;1617488;88;20165;-77
2021/07/08 06:46:50;;;;;;;;;;;;;;;19.65;70.86;101544.88;1618086;88;20168;-77
2021/07/08 06:49:12;;;;;;;;;;;;;;;19.70;70.90;101551.26;1614168;88;20109;-77
2021/07/08 06:51:38;;;;;;;;;;;;;;;19.71;71.00;101552.52;1614367;88;20171;-77
2021/07/08 06:54:06;;;;;;;;;;;;;;;19.77;70.96;101557.95;1625152;87;20216;-77
2021/07/08 06:56:32;;;;;;;;;;;;;;;19.83;71.00;101552.45;1614033;88;20145;-77
2021/07/08 06:58:57;;;;;;;;;;;;;;;19.88;70.91;101547.03;1611210;88;20164;-77
2021/07/08 07:01:23;;;;;;;;;;;;;;;19.87;70.82;101544.01;1611068;87;20802;-77
2021/07/08 07:03:49;;;;;;;;;;;;;;;19.84;70.75;101539.27;1609455;89;20207;-78
2021/07/08 07:06:15;;;;;;;;;;;;;;;19.84;70.88;101544.98;1616812;88;20195;-77
2021/07/08 07:08:42;;;;;;;;;;;;;;;19.86;70.76;101543.16;1617182;88;20136;-77
2021/07/08 07:11:09;;;;;;;;;;;;;;;19.88;70.86;101541.78;1616145;87;20138;-76
2021/07/08 07:13:35;;;;;;;;;;;;;;;19.93;70.88;101540.68;1618462;87;20136;-76
2021/07/08 07:16:01;;;;;;;;;;;;;;;19.99;70.92;101544.38;1593905;88;20165;-76
2021/07/08 07:18:27;;;;;;;;;;;;;;;20.06;70.83;101544.98;1615216;86;20117;-78
2021/07/08 07:20:53;;;;;;;;;;;;;;;20.13;70.98;101543.81;1614714;88;20180;-78
2021/07/08 07:23:19;;;;;;;;;;;;;;;20.20;70.96;101537.39;1620157;88;20098;-79
2021/07/08 07:25:46;;;;;;;;;;;;;;;20.32;70.94;101538.17;1618453;87;20231;-78
2021/07/08 07:28:12;;;;;;;;;;;;;;;20.47;70.78;101534.08;1612794;89;20121;-76
2021/07/08 07:30:38;;;;;;;;;;;;;;;20.56;70.79;101535.00;1613861;88;20141;-76
2021/07/08 07:33:05;;;;;;;;;;;;;;;20.70;70.79;101527.84;1613968;88;20133;-78
2021/07/08 07:35:31;;;;;;;;;;;;;;;20.82;70.75;101524.64;1602814;88;20115;-76
2021/07/08 07:37:57;;;;;;;;;;;;;;;20.93;70.76;101525.48;1588285;89;20129;-78
2021/07/08 07:40:23;;;;;;;;;;;;;;;20.97;70.43;101523.97;1613930;89;20145;-77
2021/07/08 07:42:50;;;;;;;;;;;;;;;21.04;70.52;101527.18;1614980;88;20227;-78
2021/07/08 07:45:16;;;;;;;;;;;;;;;21.11;70.54;101523.34;1615379;86;20141;-79
2021/07/08 07:47:42;;;;;;;;;;;;;;;21.19;70.44;101517.74;1614498;89;20133;-78
2021/07/08 07:50:09;;;;;;;;;;;;;;;21.19;70.42;101526.48;1613821;89;20247;-77
2021/07/08 07:52:36;;;;;;;;;;;;;;;21.23;70.42;101508.82;1614066;89;21022;-78
2021/07/08 07:55:03;;;;;;;;;;;;;;;21.25;70.31;101513.55;1615514;88;20137;-77
2021/07/08 07:57:29;;;;;;;;;;;;;;;21.19;70.26;101517.74;1615147;88;20137;-77
2021/07/08 07:59:55;;;;;;;;;;;;;;;21.09;70.14;101531.31;1614544;88;20129;-78
2021/07/08 08:02:21;;;;;;;;;;;;;;;20.96;70.14;101523.58;1618855;88;20188;-78
2021/07/08 08:10:06;;;;;;;;;;;;;;;20.70;70.37;101522.58;1615122;88;20105;-75
2021/07/08 08:12:32;;;;;;;;;;;;;;;20.63;70.36;101525.08;1621070;88;20116;-75
2021/07/08 08:14:58;;;;;;;;;;;;;;;20.57;70.44;101512.20;1622686;87;20100;-75
2021/07/08 08:17:24;;;;;;;;;;;;;;;20.51;70.37;101514.64;1621546;88;20452;-75
2021/07/08 08:19:50;;;;;;;;;;;;;;;20.50;70.53;101512.93;1622628;88;20270;-75
2021/07/08 08:22:18;;;;;;;;;;;;;;;20.51;70.44;101513.32;1624619;87;20227;-75
2021/07/08 08:24:44;;;;;;;;;;;;;;;20.53;70.58;101518.52;1625778;87;20442;-75
2021/07/08 08:27:10;;;;;;;;;;;;;;;20.56;70.52;101514.44;1623640;87;20144;-74
2021/07/08 08:29:37;;;;;;;;;;;;;;;20.60;70.48;101522.59;1623901;87;20179;-74
2021/07/08 08:32:04;;;;;;;;;;;;;;;20.64;70.41;101520.22;1625581;87;20168;-74
2021/07/08 08:34:30;;;;;;;;;;;;;;;20.60;70.36;101523.44;1625156;87;20460;-74
2021/07/08 08:36:56;;;;;;;;;;;;;;;20.59;70.35;101524.82;1625648;87;20740;-74
2021/07/08 08:39:22;;;;;;;;;;;;;;;20.58;70.40;101530.53;1623668;88;20239;-74
2021/07/08 08:41:48;;;;;;;;;;;;;;;20.54;70.44;101535.98;1623693;88;21111;-76
2021/07/08 08:44:14;;;;;;;;;;;;;;;20.54;70.44;101534.67;1623392;88;20183;-75
2021/07/08 08:46:39;;;;;;;;;;;;;;;20.53;70.44;101532.50;1622923;88;20199;-76
2021/07/08 08:49:06;;;;;;;;;;;;;;;20.52;70.39;101532.58;1624485;87;21148;-76
2021/07/08 08:51:33;;;;;;;;;;;;;;;20.53;70.53;101530.34;1625912;86;20741;-76
2021/07/08 08:53:59;;;;;;;;;;;;;;;20.52;70.43;101527.31;1625531;86;20815;-75
2021/07/08 08:56:26;;;;;;;;;;;;;;;20.53;70.44;101527.71;1626325;87;20114;-75
2021/07/08 08:58:52;;;;;;;;;;;;;;;20.52;70.47;101527.31;1623638;87;20152;-76
2021/07/08 09:01:18;;;;;;;;;;;;;;;20.52;70.51;101521.60;1621644;88;20723;-76
2021/07/08 09:03:45;;;;;;;;;;;;;;;20.51;70.41;101520.35;1619912;88;20117;-76
2021/07/08 09:06:14;;;;;;;;;;;;;;;20.47;70.52;101506.49;1619438;88;20100;-75
2021/07/08 09:08:45;;;;;;;;;;;;;;;20.48;70.60;101510.37;1620479;88;20116;-75
2021/07/08 09:11:14;;;;;;;;;;;;;;;20.51;70.61;101512.47;1613445;88;20137;-76
2021/07/08 09:13:50;;;;;;;;;;;;;;;20.49;70.46;101511.22;1610305;89;20137;-76
2021/07/08 09:16:22;;;;;;;;;;;;;;;20.45;70.49;101507.87;1609328;88;20158;-75
2021/07/08 09:18:57;;;;;;;;;;;;;;;20.45;70.55;101515.75;1611147;88;20144;-75
2021/07/08 09:21:23;;;;;;;;;;;;;;;20.43;70.57;101512.34;1612506;88;20113;-75
2021/07/08 09:24:11;;;;;;;;;;;;;;;20.41;70.58;101516.80;1617327;88;20133;-76
2021/07/08 09:26:38;;;;;;;;;;;;;;;20.40;70.65;101512.92;1598767;88;20117;-75
2021/07/08 09:29:07;;;;;;;;;;;;;;;20.39;70.64;101516.02;1620835;87;20126;-75
2021/07/08 09:31:35;;;;;;;;;;;;;;;20.47;70.72;101519.62;1612650;89;20133;-78
2021/07/08 09:34:25;;;;;;;;;;;;;;;20.57;70.74;101519.63;1610506;89;20141;-77
2021/07/08 09:37:04;;;;;;;;;;;;;;;20.70;70.73;101518.18;1610844;89;20141;-77
2021/07/08 09:39:36;;;;;;;;;;;;;;;20.86;70.83;101522.28;1609958;89;20112;-77
2021/07/08 09:42:02;;;;;;;;;;;;;;;21.03;70.70;101523.70;1610864;87;20136;-77
2021/07/08 09:44:29;;;;;;;;;;;;;;;21.15;70.51;101523.14;1611274;89;20161;-77
2021/07/08 09:46:56;;;;;;;;;;;;;;;21.22;70.49;101512.38;1611934;88;20142;-76
2021/07/08 09:49:23;;;;;;;;;;;;;;;21.38;70.54;101513.34;1609876;89;20117;-78
2021/07/08 09:51:50;;;;;;;;;;;;;;;21.52;70.39;101519.28;1610732;88;20109;-79
2021/07/08 09:54:26;;;;;;;;;;;;;;;21.57;70.16;101526.03;1592916;89;20144;-79
2021/07/08 09:56:53;;;;;;;;;;;;;;;21.63;70.23;101528.37;1596294;88;20506;-79
2021/07/08 09:59:27;;;;;;;;;;;;;;;21.68;70.16;101530.33;1610667;88;20145;-79
2021/07/08 10:01:58;;;;;;;;;;;;;;;21.70;70.10;101523.21;1610269;89;20567;-79
2021/07/08 10:04:25;;;;;;;;;;;;;;;21.68;69.93;101529.02;1612213;89;20153;-79
2021/07/08 10:06:51;;;;;;;;;;;;;;;21.66;70.09;101524.74;1607999;88;20120;-78
2021/07/08 10:09:19;;;;;;;;;;;;;;;21.65;70.04;101523.04;1611262;89;20113;-79
2021/07/08 10:11:56;;;;;;;;;;;;;;;21.64;70.15;101517.38;1608368;89;20109;-79
2021/07/08 10:14:24;;;;;;;;;;;;;;;21.68;70.20;101518.95;1609081;89;20145;-78
2021/07/08 10:16:54;;;;;;;;;;;;;;;21.66;70.17;101518.16;1587156;89;20153;-78
2021/07/08 10:19:23;;;;;;;;;;;;;;;21.60;70.11;101517.99;1604118;89;20141;-78
2021/07/08 10:21:50;;;;;;;;;;;;;;;21.63;70.21;101519.62;1578050;89;20138;-78
2021/07/08 10:24:17;;;;;;;;;;;;;;;21.62;70.00;101513.51;1598531;89;20099;-78
2021/07/08 10:26:47;;;;;;;;;;;;;;;21.60;70.04;101518.45;1601271;89;20113;-78
2021/07/08 10:29:14;;;;;;;;;;;;;;;21.62;70.07;101511.34;1593808;89;20191;-78
2021/07/08 10:31:41;;;;;;;;;;;;;;;21.67;70.14;101502.30;1596731;89;20108;-78
2021/07/08 10:34:14;;;;;;;;;;;;;;;21.86;70.20;101500.91;1606781;89;20161;-79
2021/07/08 10:36:52;;;;;;;;;;;;;;;22.09;70.30;101503.77;1601544;88;20113;-78
2021/07/08 10:39:21;;;;;;;;;;;;;;;22.32;70.07;101504.79;1597924;89;20169;-78
2021/07/08 10:41:53;;;;;;;;;;;;;;;22.44;69.87;101506.77;1602869;89;20109;-78
2021/07/08 10:44:44;;;;;;;;;;;;;;;22.54;69.72;101504.52;1591176;88;20115;-78
2021/07/08 10:47:32;;;;;;;;;;;;;;;22.58;69.56;101521.02;1569348;89;20153;-79
2021/07/08 10:49:58;;;;;;;;;;;;;;;22.55;69.55;101529.09;1596441;89;20152;-79
2021/07/08 10:52:41;;;;;;;;;;;;;;;22.46;69.30;101540.48;1598914;89;20177;-79
2021/07/08 10:55:08;;;;;;;;;;;;;;;22.37;69.53;101539.63;1594914;87;20151;-78
2021/07/08 10:57:39;;;;;;;;;;;;;;;22.29;69.49;101538.34;1604338;87;20141;-78
2021/07/08 11:00:10;;;;;;;;;;;;;;;22.24;69.55;101535.94;1617931;88;20109;-78
2021/07/08 11:02:47;;;;;;;;;;;;;;;22.19;69.57;101535.31;1612837;88;20125;-78
2021/07/08 11:05:13;;;;;;;;;;;;;;;22.12;69.49;101530.81;1609824;89;20117;-78
2021/07/08 11:07:46;;;;;;;;;;;;;;;22.07;69.48;101531.50;1607034;89;20507;-78
2021/07/08 11:10:13;;;;;;;;;;;;;;;22.02;69.61;101516.39;1600109;89;20149;-78
2021/07/08 11:12:40;;;;;;;;;;;;;;;22.00;69.64;101516.89;1602020;87;20528;-77
2021/07/08 11:15:07;;;;;;;;;;;;;;;22.03;69.69;101515.92;1608006;89;20453;-77
2021/07/08 11:17:41;;;;;;;;;;;;;;;22.03;69.68;101511.51;1597875;89;20523;-77
2021/07/08 11:20:32;;;;;;;;;;;;;;;22.06;69.49;101502.60;1602536;88;20137;-77
2021/07/08 11:23:40;;;;;;;;;;;;;;;22.04;69.52;101507.09;1609518;89;36231;-77
2021/07/08 11:26:08;;;;;;;;;;;;;;;22.02;69.50;101509.80;1588698;89;20188;-78
2021/07/08 11:28:34;;;;;;;;;;;;;;;21.92;69.39;101495.81;1594526;89;20467;-78
2021/07/08 11:31:05;;;;;;;;;;;;;;;21.85;69.46;101484.73;1603588;89;20095;-78
2021/07/08 11:33:34;;;;;;;;;;;;;;;21.82;69.45;101486.69;1597728;89;20140;-78
2021/07/08 11:36:09;;;;;;;;;;;;;;;21.76;69.53;101486.52;1596087;89;20189;-77
2021/07/08 11:38:35;;;;;;;;;;;;;;;21.74;69.55;101481.80;1598620;89;20550;-77
2021/07/08 11:41:02;;;;;;;;;;;;;;;21.73;69.60;101487.98;1601243;89;20310;-75
2021/07/08 11:43:31;;;;;;;;;;;;;;;21.72;69.44;101493.72;1611380;89;20204;-75
2021/07/08 11:46:09;;;;;;;;;;;;;;;21.69;69.57;101483.33;1612859;89;20117;-75
2021/07/08 11:48:37;;;;;;;;;;;;;;;21.69;69.59;101470.17;1612465;88;20430;-75
2021/07/08 11:51:12;;;;;;;;;;;;;;;21.73;69.64;101469.09;1611064;87;20161;-75
2021/07/08 11:53:39;;;;;;;;;;;;;;;21.76;69.58;101472.04;1611611;87;20129;-75
2021/07/08 11:56:05;;;;;;;;;;;;;;;21.84;69.57;101471.17;1614253;88;20121;-75
2021/07/08 11:58:35;;;;;;;;;;;;;;;21.94;69.64;101467.16;1615380;88;20449;-75
2021/07/08 12:01:07;;;;;;;;;;;;;;;21.99;69.56;101462.52;1613551;88;20105;-75
2021/07/08 12:03:44;;;;;;;;;;;;;;;21.99;69.37;101461.66;1613756;88;20145;-75
2021/07/08 12:06:12;;;;;;;;;;;;;;;21.93;69.32;101469.87;1619108;88;20180;-75
2021/07/08 12:08:42;;;;;;;;;;;;;;;21.93;69.42;101473.81;1615326;88;20144;-75
2021/07/08 12:11:15;;;;;;;;;;;;;;;21.95;69.36;101472.81;1612040;88;20141;-75
2021/07/08 12:13:53;;;;;;;;;;;;;;;21.95;69.32;101471.50;1615566;88;20417;-75
2021/07/08 12:16:23;;;;;;;;;;;;;;;21.89;69.25;101470.94;1615884;88;20139;-75
2021/07/08 12:18:52;;;;;;;;;;;;;;;21.87;69.39;101465.75;1613395;88;20196;-75
2021/07/08 12:21:27;;;;;;;;;;;;;;;21.85;69.43;101462.81;1610557;89;20213;-75
2021/07/08 12:23:54;;;;;;;;;;;;;;;21.74;69.21;101456.78;1609103;89;20161;-75
2021/07/08 12:26:32;;;;;;;;;;;;;;;21.67;69.33;101452.75;1616455;88;20172;-75
2021/07/08 12:29:16;;;;;;;;;;;;;;;21.65;69.45;101448.88;1608388;88;20213;-75
2021/07/08 12:31:50;;;;;;;;;;;;;;;21.64;69.47;101455.53;1613235;88;20219;-75
2021/07/08 12:34:17;;;;;;;;;;;;;;;21.61;69.35;101459.16;1592046;88;20383;-75
2021/07/08 12:36:43;;;;;;;;;;;;;;;21.60;69.34;101458.77;1611227;88;20343;-75
2021/07/08 12:39:09;;;;;;;;;;;;;;;21.60;69.35;101461.41;1611639;89;20233;-75
2021/07/08 12:41:36;;;;;;;;;;;;;;;21.58;69.38;101459.77;1611060;88;20352;-75
2021/07/08 12:44:12;;;;;;;;;;;;;;;21.55;69.32;101458.59;1610267;89;20212;-75